Time;durP1;ratioP1;P1;durP2;ratioP2;P2;SDS_P1;SDS_P2;PMS_P1;PMS_P2;Temp;Humidity;BMP_temperature;BMP_pressure;BME280_temperature;BME280_humidity;BME280_pressure;Samples;Min_cycle;Max_cycle;Signal;HPM_P1;HPM_P2
2022/09/07 00:00:48;;;;;;;7.00;5.45;;;26.20;1.00;;;;;;5034811;28;20139;-56
2022/09/07 00:03:14;;;;;;;5.93;5.38;;;26.20;1.00;;;;;;5034308;28;20032;-55
2022/09/07 00:05:47;;;;;;;6.75;4.82;;;26.20;1.00;;;;;;5034841;28;20095;-54
2022/09/07 00:08:14;;;;;;;7.15;5.47;;;26.20;1.00;;;;;;5038399;28;20044;-55
2022/09/07 00:10:40;;;;;;;11.27;4.88;;;26.20;1.00;;;;;;5034462;28;20025;-56
2022/09/07 00:13:09;;;;;;;7.80;4.13;;;26.10;1.00;;;;;;5033805;28;20044;-56
2022/09/07 00:15:39;;;;;;;9.10;4.72;;;26.10;1.00;;;;;;5033259;28;20036;-55
2022/09/07 00:18:04;;;;;;;6.28;4.57;;;26.00;1.00;;;;;;5034036;28;20553;-56
2022/09/07 00:20:30;;;;;;;6.00;4.93;;;26.10;1.00;;;;;;5034420;28;20064;-55
2022/09/07 00:22:55;;;;;;;5.72;4.38;;;26.10;1.00;;;;;;5035215;28;20053;-55
2022/09/07 00:25:21;;;;;;;5.70;4.22;;;26.10;1.00;;;;;;5031215;28;20101;-54
2022/09/07 00:27:47;;;;;;;6.57;5.00;;;26.10;1.00;;;;;;5033150;28;20032;-53
2022/09/07 00:30:12;;;;;;;6.25;4.68;;;26.10;1.00;;;;;;5043775;28;20100;-55
2022/09/07 00:32:38;;;;;;;6.80;4.85;;;26.10;1.00;;;;;;5034115;28;20030;-56
2022/09/07 00:35:04;;;;;;;8.13;4.35;;;26.10;1.00;;;;;;5045315;28;20124;-56
2022/09/07 00:37:29;;;;;;;8.40;4.55;;;26.00;1.00;;;;;;5033632;28;20491;-54
2022/09/07 00:39:55;;;;;;;7.32;5.00;;;26.00;1.00;;;;;;5033492;28;20033;-56
2022/09/07 00:42:21;;;;;;;5.10;4.60;;;26.10;1.00;;;;;;5032809;28;20075;-55
2022/09/07 00:45:05;;;;;;;5.00;4.50;;;26.10;1.00;;;;;;5034398;28;20021;-54
2022/09/07 00:47:44;;;;;;;5.43;4.40;;;26.00;1.00;;;;;;5034145;28;20028;-55
2022/09/07 00:50:24;;;;;;;5.68;4.60;;;26.00;1.00;;;;;;5022510;28;20037;-56
2022/09/07 00:52:57;;;;;;;6.35;5.00;;;26.00;1.00;;;;;;5033174;28;20025;-55
2022/09/07 00:55:22;;;;;;;8.48;5.13;;;26.10;1.00;;;;;;5030693;28;20048;-56
2022/09/07 00:57:54;;;;;;;6.93;5.22;;;26.10;1.00;;;;;;5033177;28;20104;-55
2022/09/07 01:00:20;;;;;;;5.38;4.50;;;26.10;1.00;;;;;;5034316;28;20132;-55
2022/09/07 01:02:49;;;;;;;5.78;5.28;;;26.10;1.00;;;;;;5031500;28;20360;-54
2022/09/07 01:05:41;;;;;;;6.03;4.63;;;26.10;1.00;;;;;;5034969;28;20046;-56
2022/09/07 01:08:08;;;;;;;7.10;4.68;;;26.10;1.00;;;;;;5029900;28;20037;-56
2022/09/07 01:10:34;;;;;;;7.95;5.03;;;26.10;1.00;;;;;;5033791;28;20037;-56
2022/09/07 01:13:00;;;;;;;7.10;5.07;;;26.10;1.00;;;;;;5031231;28;20025;-56
2022/09/07 01:15:54;;;;;;;6.63;4.65;;;26.10;1.00;;;;;;5039005;28;20091;-56
2022/09/07 01:18:43;;;;;;;6.43;5.03;;;26.10;1.00;;;;;;5033914;28;20061;-56
2022/09/07 01:21:39;;;;;;;8.82;5.68;;;26.10;1.00;;;;;;5032907;28;20394;-53
2022/09/07 01:24:23;;;;;;;5.32;4.80;;;26.10;1.00;;;;;;5035502;28;20334;-53
2022/09/07 01:27:26;;;;;;;6.38;4.90;;;26.10;1.00;;;;;;5032004;28;20025;-54
2022/09/07 01:30:00;;;;;;;8.75;5.82;;;26.00;1.00;;;;;;5028354;28;20086;-55
2022/09/07 01:32:51;;;;;;;6.38;5.63;;;26.00;1.00;;;;;;5032511;28;20025;-54
2022/09/07 01:35:49;;;;;;;6.47;5.82;;;26.00;1.00;;;;;;5031532;28;20045;-56
2022/09/07 01:38:44;;;;;;;9.68;6.20;;;26.00;1.00;;;;;;5039736;28;20033;-54
2022/09/07 01:41:21;;;;;;;6.93;5.57;;;26.00;1.00;;;;;;5037383;28;20025;-55
2022/09/07 01:44:22;;;;;;;8.50;5.78;;;26.00;1.00;;;;;;5032314;28;20100;-54
2022/09/07 01:47:14;;;;;;;6.82;5.95;;;25.90;1.00;;;;;;5006577;28;20033;-54
2022/09/07 01:50:20;;;;;;;8.13;5.68;;;25.90;1.00;;;;;;5041870;28;20025;-55
2022/09/07 01:53:03;;;;;;;6.15;5.63;;;25.80;1.00;;;;;;5024185;28;20041;-54
2022/09/07 01:55:35;;;;;;;8.10;6.18;;;25.90;1.00;;;;;;5042969;28;20036;-55
2022/09/07 01:58:13;;;;;;;7.03;6.22;;;25.80;1.00;;;;;;5032778;28;20092;-56
2022/09/07 02:00:45;;;;;;;9.80;5.55;;;25.80;1.00;;;;;;5021416;28;20061;-56
2022/09/07 02:03:14;;;;;;;7.80;5.65;;;25.80;1.00;;;;;;5041579;28;20017;-56
2022/09/07 02:06:06;;;;;;;6.53;4.97;;;25.70;1.00;;;;;;5021353;28;20042;-55
2022/09/07 02:08:47;;;;;;;9.48;5.63;;;25.70;1.00;;;;;;5032363;28;20459;-56
2022/09/07 02:11:18;;;;;;;7.93;5.63;;;25.70;1.00;;;;;;5040133;28;20021;-56
2022/09/07 02:14:08;;;;;;;6.32;5.72;;;25.70;1.00;;;;;;5031499;28;20029;-54
2022/09/07 02:16:39;;;;;;;9.60;6.13;;;25.60;1.00;;;;;;5035293;28;20091;-54
2022/09/07 02:19:10;;;;;;;7.68;5.78;;;25.60;1.00;;;;;;5038161;28;20033;-56
2022/09/07 02:21:44;;;;;;;13.77;6.70;;;25.60;1.00;;;;;;5038323;28;20030;-54
2022/09/07 02:24:36;;;;;;;7.57;5.60;;;25.60;1.00;;;;;;5041150;28;20025;-55
2022/09/07 02:27:07;;;;;;;8.63;6.00;;;25.60;1.00;;;;;;5033021;28;20065;-55
2022/09/07 02:29:34;;;;;;;7.00;6.30;;;25.60;1.00;;;;;;5038961;28;20025;-56
2022/09/07 02:32:00;;;;;;;9.50;6.63;;;25.60;1.00;;;;;;5030818;28;20104;-56
2022/09/07 02:34:26;;;;;;;11.45;7.30;;;25.60;1.00;;;;;;5031313;28;20045;-56
2022/09/07 02:36:53;;;;;;;10.55;6.45;;;25.50;1.00;;;;;;5032083;28;20104;-55
2022/09/07 02:39:19;;;;;;;8.25;6.72;;;25.60;1.00;;;;;;5032829;28;20017;-54
2022/09/07 02:41:45;;;;;;;8.82;6.68;;;25.50;1.00;;;;;;5031068;28;20026;-55
2022/09/07 02:44:21;;;;;;;8.50;6.82;;;25.60;1.00;;;;;;5033450;28;20017;-55
2022/09/07 02:47:13;;;;;;;10.57;7.53;;;25.50;1.00;;;;;;5019708;28;20026;-53
2022/09/07 02:50:21;;;;;;;10.05;8.25;;;25.50;1.00;;;;;;5028402;28;20128;-53
2022/09/07 02:53:24;;;;;;;7.55;6.78;;;25.50;1.00;;;;;;5013986;28;20557;-53
2022/09/07 02:55:52;;;;;;;9.05;6.43;;;25.50;1.00;;;;;;5032731;28;20033;-54
2022/09/07 02:58:46;;;;;;;7.68;6.57;;;25.60;1.00;;;;;;5031818;28;20034;-55
2022/09/07 03:01:35;;;;;;;7.20;5.80;;;25.60;1.00;;;;;;5027283;28;20359;-56
2022/09/07 03:04:09;;;;;;;6.82;6.18;;;25.60;1.00;;;;;;5030065;28;20101;-54
2022/09/07 03:06:40;;;;;;;7.80;6.15;;;25.60;1.00;;;;;;5032217;28;20033;-55
2022/09/07 03:09:12;;;;;;;7.18;6.53;;;25.60;1.00;;;;;;5030802;28;20036;-53
2022/09/07 03:11:38;;;;;;;6.72;6.10;;;25.60;1.00;;;;;;5031374;28;20108;-53
2022/09/07 03:14:15;;;;;;;7.75;6.90;;;25.60;1.00;;;;;;5030655;28;20388;-54
2022/09/07 03:16:41;;;;;;;7.35;6.45;;;25.60;1.00;;;;;;5031510;28;20018;-51
2022/09/07 03:19:07;;;;;;;7.88;6.50;;;25.60;1.00;;;;;;5030526;28;20479;-52
2022/09/07 03:21:33;;;;;;;8.85;6.93;;;25.60;1.00;;;;;;5031137;28;20100;-51
2022/09/07 03:23:58;;;;;;;11.02;8.63;;;25.60;1.00;;;;;;5033042;28;20414;-53
2022/09/07 03:26:24;;;;;;;8.95;7.57;;;25.50;1.00;;;;;;5037263;28;20026;-53
2022/09/07 03:28:50;;;;;;;9.30;7.70;;;25.50;1.00;;;;;;5031112;28;20065;-55
2022/09/07 03:31:16;;;;;;;8.18;7.38;;;25.40;1.00;;;;;;5039080;28;20017;-53
2022/09/07 03:33:42;;;;;;;9.43;8.48;;;25.40;1.00;;;;;;5040468;28;20064;-52
2022/09/07 03:36:07;;;;;;;11.20;9.38;;;25.40;1.00;;;;;;5031553;28;20080;-53
2022/09/07 03:38:33;;;;;;;11.40;8.40;;;25.40;1.00;;;;;;5031944;28;20068;-52
2022/09/07 03:41:00;;;;;;;11.15;9.88;;;25.40;1.00;;;;;;5030279;28;20527;-55
2022/09/07 03:43:27;;;;;;;11.88;10.30;;;25.40;1.00;;;;;;5031163;28;20025;-52
2022/09/07 03:46:01;;;;;;;14.38;11.73;;;25.30;1.00;;;;;;5041431;28;20510;-52
2022/09/07 03:48:29;;;;;;;13.45;10.85;;;25.40;1.00;;;;;;5031519;28;20105;-52
2022/09/07 03:51:00;;;;;;;14.57;12.80;;;25.30;1.00;;;;;;5040581;28;20030;-53
2022/09/07 03:53:26;;;;;;;13.57;12.23;;;25.30;1.00;;;;;;5032298;28;20037;-51
2022/09/07 03:56:00;;;;;;;15.93;13.50;;;25.30;1.00;;;;;;5030283;28;20025;-51
2022/09/07 03:58:28;;;;;;;13.55;12.25;;;25.30;1.00;;;;;;5031464;28;20033;-54
2022/09/07 04:00:58;;;;;;;18.00;15.30;;;25.30;1.00;;;;;;5042919;28;20026;-51
2022/09/07 04:03:24;;;;;;;15.10;13.63;;;25.30;1.00;;;;;;5031312;28;20363;-53
2022/09/07 04:05:50;;;;;;;14.57;13.10;;;25.30;1.00;;;;;;5042982;28;20053;-51
2022/09/07 04:08:15;;;;;;;15.15;13.45;;;25.30;1.00;;;;;;5028441;28;20044;-51
2022/09/07 04:10:41;;;;;;;13.32;12.02;;;25.30;1.00;;;;;;5033697;28;20386;-53
2022/09/07 04:13:07;;;;;;;15.73;13.55;;;25.20;1.00;;;;;;5032107;28;20549;-55
2022/09/07 04:15:33;;;;;;;15.80;13.93;;;25.20;1.00;;;;;;5012143;28;20038;-56
2022/09/07 04:18:00;;;;;;;14.20;12.80;;;25.20;1.00;;;;;;5030058;28;20018;-55
2022/09/07 04:20:26;;;;;;;18.02;14.73;;;25.20;1.00;;;;;;5039125;28;20185;-57
2022/09/07 04:22:51;;;;;;;17.17;13.63;;;25.20;1.00;;;;;;5025989;28;20021;-55
2022/09/07 04:25:18;;;;;;;16.17;13.98;;;25.20;1.00;;;;;;5039699;28;20330;-53
2022/09/07 04:27:44;;;;;;;16.45;14.68;;;25.20;1.00;;;;;;5039885;28;20025;-53
2022/09/07 04:30:10;;;;;;;14.07;12.45;;;25.10;1.00;;;;;;5034105;28;20094;-55
2022/09/07 04:32:36;;;;;;;14.70;12.68;;;25.10;1.00;;;;;;5034532;28;20510;-54
2022/09/07 04:35:02;;;;;;;15.43;12.75;;;25.10;1.00;;;;;;5034745;28;20167;-55
2022/09/07 04:37:28;;;;;;;14.57;12.23;;;25.10;1.00;;;;;;5034210;28;20487;-56
2022/09/07 04:39:53;;;;;;;14.63;12.85;;;25.20;1.00;;;;;;5033327;28;20033;-52
2022/09/07 04:42:20;;;;;;;13.93;12.55;;;25.10;1.00;;;;;;5034240;28;20126;-54
2022/09/07 04:44:48;;;;;;;16.23;12.82;;;25.00;1.00;;;;;;5033333;28;20033;-54
2022/09/07 04:47:14;;;;;;;13.98;12.45;;;25.10;1.00;;;;;;5033394;28;20109;-53
2022/09/07 04:49:39;;;;;;;13.20;11.98;;;25.10;1.00;;;;;;5036056;28;20553;-54
2022/09/07 04:52:05;;;;;;;16.13;12.90;;;25.10;1.00;;;;;;5033127;28;20027;-54
2022/09/07 04:54:36;;;;;;;14.35;12.95;;;25.10;1.00;;;;;;5036210;28;20041;-53
2022/09/07 04:57:02;;;;;;;13.68;12.38;;;25.00;1.00;;;;;;5033832;28;20036;-53
2022/09/07 04:59:28;;;;;;;13.60;11.88;;;25.10;1.00;;;;;;5033133;28;20025;-56
2022/09/07 05:01:53;;;;;;;14.68;12.40;;;25.00;1.00;;;;;;5033947;28;20504;-55
2022/09/07 05:04:19;;;;;;;14.80;13.30;;;25.00;1.00;;;;;;5032320;28;20060;-54
2022/09/07 05:06:44;;;;;;;16.77;13.68;;;25.00;1.00;;;;;;5034156;28;20026;-54
2022/09/07 05:09:27;;;;;;;16.52;14.80;;;25.00;1.00;;;;;;5032706;28;20477;-53
2022/09/07 05:11:53;;;;;;;17.17;15.55;;;25.00;1.00;;;;;;5033631;28;20022;-52
2022/09/07 05:14:19;;;;;;;16.08;14.43;;;25.00;1.00;;;;;;5045628;28;20055;-53
2022/09/07 05:16:44;;;;;;;15.75;14.15;;;25.10;1.00;;;;;;5032539;28;20039;-55
2022/09/07 05:19:13;;;;;;;15.57;12.90;;;25.10;1.00;;;;;;5031538;28;20036;-53
2022/09/07 05:21:39;;;;;;;13.70;11.77;;;25.20;1.00;;;;;;5028641;28;20018;-51
2022/09/07 05:24:05;;;;;;;11.95;10.70;;;25.20;1.00;;;;;;5023049;28;20558;-52
2022/09/07 05:26:35;;;;;;;10.43;9.25;;;25.20;1.00;;;;;;5032330;28;20416;-52
2022/09/07 05:29:03;;;;;;;13.13;9.75;;;25.30;1.00;;;;;;5039789;28;20092;-54
2022/09/07 05:31:29;;;;;;;10.93;8.60;;;25.30;1.00;;;;;;5037528;28;20097;-56
2022/09/07 05:33:56;;;;;;;9.18;8.27;;;25.30;1.00;;;;;;5032393;28;20182;-56
2022/09/07 05:36:25;;;;;;;9.50;7.82;;;25.30;1.00;;;;;;5031767;28;20177;-52
2022/09/07 05:38:51;;;;;;;8.93;7.40;;;25.30;1.00;;;;;;5017993;28;20500;-56
2022/09/07 05:41:19;;;;;;;11.43;7.32;;;25.30;1.00;;;;;;5033071;28;20025;-53
2022/09/07 05:43:46;;;;;;;8.50;6.93;;;25.40;1.00;;;;;;5032113;28;20451;-51
2022/09/07 05:46:12;;;;;;;9.27;7.20;;;25.40;1.00;;;;;;5030929;28;20029;-54
2022/09/07 05:48:37;;;;;;;11.02;7.18;;;25.40;1.00;;;;;;5032053;28;21595;-54
2022/09/07 05:51:04;;;;;;;8.18;6.95;;;25.40;1.00;;;;;;5032837;28;20029;-54
2022/09/07 05:53:32;;;;;;;8.77;7.20;;;25.50;1.00;;;;;;5027358;28;20038;-52
2022/09/07 05:55:59;;;;;;;9.90;7.60;;;25.50;1.00;;;;;;5032911;28;20396;-55
2022/09/07 05:58:26;;;;;;;9.52;7.53;;;25.50;1.00;;;;;;5031792;28;20029;-49
2022/09/07 06:00:52;;;;;;;8.07;7.35;;;25.60;1.00;;;;;;5032517;28;20028;-53
2022/09/07 06:03:17;;;;;;;9.20;8.27;;;25.50;1.00;;;;;;5037329;28;20033;-55
2022/09/07 06:05:43;;;;;;;12.88;9.40;;;25.60;1.00;;;;;;5033731;28;20041;-52
2022/09/07 06:08:09;;;;;;;11.52;9.55;;;25.60;1.00;;;;;;5031177;28;20029;-56
2022/09/07 06:10:36;;;;;;;10.50;9.45;;;25.60;1.00;;;;;;5031577;28;20422;-57
2022/09/07 06:16:23;;;;;;;14.00;10.05;;;25.70;1.00;;;;;;5016680;28;20045;-56
2022/09/07 06:18:49;;;;;;;11.35;9.73;;;25.70;1.00;;;;;;5022799;28;20017;-55
2022/09/07 06:21:20;;;;;;;11.27;9.52;;;25.80;1.00;;;;;;5032012;28;20447;-55
2022/09/07 06:23:47;;;;;;;15.18;9.90;;;25.80;1.00;;;;;;5033211;28;20033;-54
2022/09/07 06:26:14;;;;;;;12.73;10.90;;;25.80;1.00;;;;;;5029328;28;20033;-55
2022/09/07 06:29:02;;;;;;;13.13;10.27;;;25.80;1.00;;;;;;5028153;28;20025;-56
2022/09/07 06:31:27;;;;;;;15.00;10.85;;;25.80;1.00;;;;;;5032203;28;20021;-55
2022/09/07 06:33:54;;;;;;;13.05;10.38;;;25.90;1.00;;;;;;5031869;28;20040;-56
2022/09/07 06:36:22;;;;;;;11.93;10.68;;;26.00;1.00;;;;;;5029802;28;20026;-56
2022/09/07 06:38:49;;;;;;;14.40;10.05;;;26.00;1.00;;;;;;5029816;28;20527;-53
2022/09/07 06:41:20;;;;;;;16.77;11.48;;;26.00;1.00;;;;;;5038717;28;20026;-54
2022/09/07 06:43:46;;;;;;;12.32;10.82;;;26.00;1.00;;;;;;5041140;28;20083;-54
2022/09/07 06:46:12;;;;;;;13.40;10.85;;;26.10;1.00;;;;;;5031777;28;21353;-57
2022/09/07 06:48:39;;;;;;;12.38;11.05;;;26.10;1.00;;;;;;5030724;28;20028;-53
2022/09/07 06:51:15;;;;;;;16.45;11.90;;;26.00;1.00;;;;;;5031635;28;20041;-51
2022/09/07 06:53:41;;;;;;;12.55;11.25;;;26.00;1.00;;;;;;5030692;28;20087;-55
2022/09/07 06:56:09;;;;;;;14.30;12.82;;;26.10;1.00;;;;;;5031704;28;20034;-52
2022/09/07 06:58:35;;;;;;;13.13;11.82;;;26.00;1.00;;;;;;5040393;28;20448;-55
2022/09/07 07:01:14;;;;;;;13.18;11.60;;;26.10;1.00;;;;;;5031624;28;20032;-56
2022/09/07 07:03:40;;;;;;;14.20;11.63;;;26.00;1.00;;;;;;5029344;28;20036;-56
2022/09/07 07:06:06;;;;;;;15.32;11.93;;;26.10;1.00;;;;;;5031503;28;20514;-55
2022/09/07 07:08:32;;;;;;;14.98;13.35;;;26.10;1.00;;;;;;5030588;28;20033;-56
2022/09/07 07:11:24;;;;;;;14.27;12.77;;;26.10;1.00;;;;;;5031490;28;20076;-55
2022/09/07 07:13:49;;;;;;;17.10;13.68;;;26.10;1.00;;;;;;5042571;28;20095;-56
2022/09/07 07:16:27;;;;;;;14.65;12.80;;;26.00;1.00;;;;;;5031793;28;20465;-56
2022/09/07 07:18:54;;;;;;;14.88;13.30;;;26.00;1.00;;;;;;5044624;28;20041;-55
2022/09/07 07:21:20;;;;;;;14.95;12.32;;;26.10;1.00;;;;;;5030227;28;20013;-55
2022/09/07 07:23:51;;;;;;;12.80;11.57;;;26.10;1.00;;;;;;5030052;28;20103;-53
2022/09/07 07:26:22;;;;;;;13.45;11.20;;;26.10;1.00;;;;;;5034803;28;20021;-54
2022/09/07 07:28:50;;;;;;;14.80;11.27;;;26.10;1.00;;;;;;5031383;28;20041;-53
2022/09/07 07:31:17;;;;;;;13.68;11.50;;;26.10;1.00;;;;;;5030956;28;20036;-51
2022/09/07 07:33:45;;;;;;;12.63;11.32;;;26.10;1.00;;;;;;5018739;28;20037;-53
2022/09/07 07:36:16;;;;;;;15.02;11.20;;;26.10;1.00;;;;;;5031153;28;20394;-51
2022/09/07 07:38:46;;;;;;;12.07;10.68;;;26.20;1.00;;;;;;5030935;28;20479;-53
2022/09/07 07:41:13;;;;;;;12.43;11.13;;;26.20;1.00;;;;;;5031494;28;20026;-56
2022/09/07 07:43:39;;;;;;;12.65;11.38;;;26.20;1.00;;;;;;5033323;28;20112;-53
2022/09/07 07:46:05;;;;;;;12.38;11.23;;;26.20;1.00;;;;;;5022753;28;20030;-56
2022/09/07 07:48:37;;;;;;;12.50;11.20;;;26.10;1.00;;;;;;5031702;28;20029;-55
2022/09/07 07:51:08;;;;;;;12.95;11.05;;;26.10;1.00;;;;;;5031020;28;20026;-56
2022/09/07 07:53:35;;;;;;;11.30;10.38;;;26.10;1.00;;;;;;5035928;28;20051;-56
2022/09/07 07:56:03;;;;;;;13.40;11.25;;;26.10;1.00;;;;;;5031171;28;20022;-54
2022/09/07 07:58:30;;;;;;;11.80;10.60;;;26.20;1.00;;;;;;5035297;28;20060;-56
2022/09/07 08:01:04;;;;;;;11.48;10.35;;;26.10;1.00;;;;;;5021006;28;20040;-56
2022/09/07 08:03:34;;;;;;;13.95;10.10;;;26.30;1.00;;;;;;5039532;28;20351;-54
2022/09/07 08:06:13;;;;;;;11.00;9.32;;;26.30;1.00;;;;;;5034843;28;20045;-53
2022/09/07 08:08:40;;;;;;;12.23;10.95;;;26.40;1.00;;;;;;5041010;28;20029;-56
2022/09/07 08:11:15;;;;;;;13.43;10.27;;;26.40;1.00;;;;;;5034932;28;20037;-54
2022/09/07 08:13:42;;;;;;;12.77;11.40;;;26.50;1.00;;;;;;5040295;28;20025;-53
2022/09/07 08:16:09;;;;;;;12.82;11.50;;;26.50;1.00;;;;;;5034822;28;20037;-55
2022/09/07 08:18:35;;;;;;;13.35;11.88;;;26.50;1.00;;;;;;5040505;28;20085;-55
2022/09/07 08:21:03;;;;;;;14.73;13.32;;;26.60;1.00;;;;;;5037010;28;20029;-56
2022/09/07 08:23:31;;;;;;;19.92;17.02;;;26.50;1.00;;;;;;5033714;28;20033;-54
2022/09/07 08:25:59;;;;;;;15.65;14.05;;;26.50;1.00;;;;;;5034514;28;20033;-52
2022/09/07 08:29:12;;;;;;;17.92;16.30;;;26.60;1.00;;;;;;5032515;28;20144;-56
2022/09/07 08:31:37;;;;;;;21.05;17.55;;;26.70;1.00;;;;;;5021746;28;20009;-55
2022/09/07 08:34:03;;;;;;;18.38;16.23;;;26.70;1.00;;;;;;5040694;28;20056;-55
2022/09/07 08:36:30;;;;;;;20.33;18.30;;;26.70;1.00;;;;;;5032958;28;20487;-54
2022/09/07 08:38:59;;;;;;;18.08;16.30;;;26.70;1.00;;;;;;5030226;28;20033;-55
2022/09/07 08:41:44;;;;;;;19.85;17.85;;;26.70;1.00;;;;;;5033191;28;20037;-55
2022/09/07 08:44:27;;;;;;;17.88;16.10;;;26.90;1.00;;;;;;5028946;28;20038;-56
2022/09/07 08:47:24;;;;;;;20.10;18.10;;;27.00;1.00;;;;;;5033896;28;20789;-53
2022/09/07 08:50:01;;;;;;;21.60;19.27;;;27.10;1.00;;;;;;5019601;28;20052;-55
2022/09/07 08:52:48;;;;;;;22.27;20.17;;;27.10;1.00;;;;;;5032393;28;20057;-54
2022/09/07 08:55:37;;;;;;;22.65;18.70;;;27.00;1.00;;;;;;5032344;28;20044;-55
2022/09/07 08:58:21;;;;;;;22.30;20.10;;;27.00;1.00;;;;;;5031851;28;20041;-54
2022/09/07 09:00:49;;;;;;;26.20;21.20;;;26.90;1.00;;;;;;5040623;28;20076;-55
2022/09/07 09:03:25;;;;;;;24.10;21.55;;;27.00;1.00;;;;;;5034495;28;20074;-56
2022/09/07 09:05:51;;;;;;;23.30;21.13;;;27.10;1.00;;;;;;5040628;28;20089;-53
2022/09/07 09:09:04;;;;;;;23.70;21.30;;;27.10;1.00;;;;;;5034798;28;20013;-49
2022/09/07 09:12:00;;;;;;;23.63;21.52;;;27.00;1.00;;;;;;5010530;28;20113;-49
2022/09/07 09:14:35;;;;;;;25.63;22.70;;;27.10;1.00;;;;;;5005326;28;20064;-52
2022/09/07 09:17:10;;;;;;;25.35;23.15;;;27.00;1.00;;;;;;5019153;28;20137;-55
2022/09/07 09:20:02;;;;;;;24.73;22.33;;;27.00;1.00;;;;;;5033633;28;20057;-54
2022/09/07 09:22:28;;;;;;;28.73;25.98;;;27.00;1.00;;;;;;5030420;28;20033;-55
2022/09/07 09:25:17;;;;;;;27.33;24.23;;;26.90;1.00;;;;;;5042239;28;20051;-53
2022/09/07 09:27:43;;;;;;;28.30;25.35;;;27.00;1.00;;;;;;5024485;28;20072;-54
2022/09/07 09:30:23;;;;;;;26.30;23.67;;;26.90;1.00;;;;;;5032463;28;20056;-55
2022/09/07 09:32:51;;;;;;;25.58;22.88;;;27.00;1.00;;;;;;5042591;28;20075;-52
2022/09/07 09:35:34;;;;;;;27.23;24.52;;;27.00;1.00;;;;;;5039586;28;20087;-55
2022/09/07 09:38:03;;;;;;;27.23;24.03;;;26.90;1.00;;;;;;5038802;28;20043;-56
2022/09/07 09:40:32;;;;;;;28.52;25.65;;;27.00;1.00;;;;;;5034930;28;20017;-55
2022/09/07 09:43:19;;;;;;;24.02;21.55;;;27.00;1.00;;;;;;5019773;28;20035;-54
2022/09/07 09:45:51;;;;;;;25.55;22.67;;;27.00;1.00;;;;;;5031422;28;20078;-55
2022/09/07 09:48:25;;;;;;;23.73;21.38;;;27.10;1.00;;;;;;5032922;28;20067;-55
2022/09/07 09:50:54;;;;;;;24.13;21.92;;;27.00;1.00;;;;;;5032137;28;20105;-52
2022/09/07 09:53:54;;;;;;;25.73;23.15;;;27.00;1.00;;;;;;5033015;28;20057;-51
2022/09/07 09:56:21;;;;;;;22.58;20.45;;;27.10;1.00;;;;;;5032337;28;20047;-54
2022/09/07 09:58:47;;;;;;;24.00;20.77;;;27.20;1.00;;;;;;5034988;28;20038;-52
2022/09/07 10:01:24;;;;;;;23.67;21.20;;;27.10;1.00;;;;;;5044904;28;20087;-50
2022/09/07 10:03:50;;;;;;;23.52;21.15;;;27.10;1.00;;;;;;5036660;28;20041;-55
2022/09/07 10:06:19;;;;;;;23.67;21.27;;;27.10;1.00;;;;;;5039449;28;20052;-54
2022/09/07 10:09:01;;;;;;;20.63;18.13;;;27.10;1.00;;;;;;5038447;28;20037;-51
2022/09/07 10:11:48;;;;;;;21.40;19.33;;;27.20;1.00;;;;;;5032318;28;20515;-53
2022/09/07 10:14:29;;;;;;;19.52;17.75;;;27.30;1.00;;;;;;5032692;28;20033;-55
2022/09/07 10:16:57;;;;;;;24.33;20.75;;;27.30;1.00;;;;;;5032915;28;20033;-50
2022/09/07 10:19:41;;;;;;;22.70;20.33;;;27.40;1.00;;;;;;5035768;28;20032;-54
2022/09/07 10:22:31;;;;;;;26.85;24.15;;;27.40;1.00;;;;;;5029071;28;20033;-53
2022/09/07 10:24:59;;;;;;;22.25;19.90;;;27.20;1.00;;;;;;5018867;28;20037;-53
2022/09/07 10:27:29;;;;;;;21.40;19.40;;;27.30;1.00;;;;;;5037934;28;20178;-52
2022/09/07 10:29:55;;;;;;;20.92;18.73;;;27.40;1.00;;;;;;5031840;28;20080;-55
2022/09/07 10:32:32;;;;;;;23.38;21.08;;;27.50;1.00;;;;;;5039355;28;20049;-52
2022/09/07 10:35:14;;;;;;;27.50;24.67;;;27.40;1.00;;;;;;5020202;28;20077;-52
2022/09/07 10:38:05;;;;;;;22.27;19.95;;;27.30;1.00;;;;;;5037644;28;20032;-55
2022/09/07 10:40:41;;;;;;;21.58;19.38;;;27.50;1.00;;;;;;5033180;28;20083;-51
2022/09/07 10:43:21;;;;;;;21.30;19.23;;;27.70;1.00;;;;;;5032392;28;20034;-52
2022/09/07 10:46:05;;;;;;;24.08;21.65;;;27.80;1.00;;;;;;5039615;28;20036;-54
2022/09/07 10:48:37;;;;;;;24.30;21.42;;;27.60;1.00;;;;;;5017712;28;20026;-55
2022/09/07 10:51:09;;;;;;;24.90;22.50;;;27.80;1.00;;;;;;5029800;28;20041;-55
2022/09/07 10:53:46;;;;;;;23.63;21.40;;;28.10;1.00;;;;;;5031764;28;20487;-52
2022/09/07 10:56:26;;;;;;;23.75;20.45;;;28.00;1.00;;;;;;5031242;28;20108;-55
2022/09/07 10:59:30;;;;;;;22.88;19.92;;;28.20;1.00;;;;;;5031782;28;20486;-56
2022/09/07 11:01:56;;;;;;;20.42;18.42;;;28.30;1.00;;;;;;5037206;28;20028;-56
2022/09/07 11:04:58;;;;;;;20.20;18.25;;;28.50;1.00;;;;;;5031639;28;20037;-56
2022/09/07 11:07:47;;;;;;;20.13;18.23;;;28.60;1.00;;;;;;5027984;28;20037;-57
2022/09/07 11:10:17;;;;;;;20.70;18.80;;;28.60;1.00;;;;;;5022513;28;20036;-56
2022/09/07 11:12:44;;;;;;;20.85;18.73;;;28.70;1.00;;;;;;5031833;28;20143;-55
2022/09/07 11:15:12;;;;;;;21.63;19.42;;;28.70;1.00;;;;;;5031418;28;20033;-56
2022/09/07 11:18:13;;;;;;;21.25;18.83;;;28.80;1.00;;;;;;5038676;28;20114;-55
2022/09/07 11:20:49;;;;;;;22.02;19.77;;;28.70;1.00;;;;;;5018138;28;20045;-56
2022/09/07 11:23:36;;;;;;;21.73;19.63;;;28.80;1.00;;;;;;5030981;28;20344;-54
2022/09/07 11:26:20;;;;;;;22.35;19.95;;;28.80;1.00;;;;;;5031210;28;20029;-55
2022/09/07 11:29:07;;;;;;;18.42;16.52;;;28.80;1.00;;;;;;5018889;28;20114;-56
2022/09/07 11:31:51;;;;;;;20.52;18.63;;;28.90;1.00;;;;;;5030666;28;20083;-56
2022/09/07 11:34:24;;;;;;;17.67;16.15;;;29.00;1.00;;;;;;5034511;28;20450;-55
2022/09/07 11:37:12;;;;;;;21.38;19.42;;;29.30;1.00;;;;;;5034743;28;20028;-56
2022/09/07 11:40:13;;;;;;;20.42;18.42;;;29.20;1.00;;;;;;5022541;28;20105;-57
2022/09/07 11:43:01;;;;;;;17.83;16.10;;;29.20;1.00;;;;;;5034659;28;20479;-54
2022/09/07 11:45:32;;;;;;;21.20;19.15;;;29.30;1.00;;;;;;5035508;28;20029;-55
2022/09/07 11:48:12;;;;;;;24.42;21.92;;;29.40;1.00;;;;;;5042867;28;20123;-55
2022/09/07 11:50:45;;;;;;;22.90;20.85;;;29.40;1.00;;;;;;5035290;28;20029;-54
2022/09/07 11:53:18;;;;;;;23.02;20.80;;;29.40;1.00;;;;;;5042634;28;20125;-56
2022/09/07 11:55:48;;;;;;;21.40;19.33;;;29.30;1.00;;;;;;5035598;28;20108;-56
2022/09/07 11:58:32;;;;;;;21.08;18.98;;;29.40;1.00;;;;;;5039436;28;20026;-57
2022/09/07 12:01:19;;;;;;;22.35;18.80;;;29.60;1.00;;;;;;5034959;28;20114;-57
2022/09/07 12:03:48;;;;;;;20.75;18.75;;;29.70;1.00;;;;;;5023441;28;20424;-54
2022/09/07 12:06:22;;;;;;;21.13;19.15;;;29.70;1.00;;;;;;5034560;28;20049;-54
2022/09/07 12:09:11;;;;;;;22.70;19.58;;;29.80;1.00;;;;;;5025874;28;20068;-51
2022/09/07 12:12:07;;;;;;;22.42;20.33;;;30.20;1.00;;;;;;5033914;28;20033;-53
2022/09/07 12:15:00;;;;;;;25.38;22.63;;;30.30;1.00;;;;;;5033195;28;20045;-54
2022/09/07 12:17:38;;;;;;;25.17;22.40;;;30.20;1.00;;;;;;5041035;28;20063;-55
2022/09/07 12:20:18;;;;;;;24.88;22.38;;;30.30;1.00;;;;;;5036705;28;20017;-56
2022/09/07 12:22:54;;;;;;;29.00;26.05;;;29.80;1.00;;;;;;5048499;28;20130;-57
2022/09/07 12:25:30;;;;;;;38.53;34.30;;;29.60;1.00;;;;;;5034799;28;20085;-56
2022/09/07 12:27:56;;;;;;;37.22;33.38;;;29.30;1.00;;;;;;5045937;28;20025;-54
2022/09/07 12:30:22;;;;;;;39.35;35.25;;;29.30;1.00;;;;;;5017013;28;20034;-50
2022/09/07 12:32:54;;;;;;;41.83;37.80;;;29.20;1.00;;;;;;5028282;28;20028;-52
2022/09/07 12:35:29;;;;;;;43.22;39.30;;;29.10;1.00;;;;;;5032933;28;20140;-55
2022/09/07 12:38:00;;;;;;;38.10;34.50;;;29.00;1.00;;;;;;5035341;28;20048;-56
2022/09/07 12:40:28;;;;;;;50.42;45.42;;;28.90;1.00;;;;;;5034280;28;20111;-52
2022/09/07 12:43:12;;;;;;;43.10;38.70;;;29.00;1.00;;;;;;5039095;28;20091;-53
2022/09/07 12:45:37;;;;;;;37.55;33.85;;;29.00;1.00;;;;;;5033540;28;20127;-53
2022/09/07 12:48:15;;;;;;;32.80;29.50;;;29.10;1.00;;;;;;5034435;28;20063;-54
2022/09/07 12:50:59;;;;;;;35.15;31.58;;;29.10;1.00;;;;;;5034119;28;20486;-51
2022/09/07 12:53:45;;;;;;;32.42;29.15;;;29.10;1.00;;;;;;5020729;28;20025;-55
2022/09/07 12:56:40;;;;;;;29.65;26.67;;;29.20;1.00;;;;;;5034135;28;20041;-51
2022/09/07 12:59:31;;;;;;;29.13;26.25;;;29.30;1.00;;;;;;5027186;28;20033;-54
2022/09/07 13:02:24;;;;;;;30.77;27.52;;;29.50;1.00;;;;;;5023702;28;20036;-50
2022/09/07 13:05:13;;;;;;;30.30;27.13;;;29.70;1.00;;;;;;5035252;28;20041;-54
2022/09/07 13:08:13;;;;;;;29.45;26.85;;;30.30;1.00;;;;;;5041473;28;20151;-51
2022/09/07 13:10:43;;;;;;;30.67;27.23;;;31.10;1.00;;;;;;5024123;28;20071;-54
2022/09/07 13:13:14;;;;;;;31.17;27.98;;;31.60;1.00;;;;;;5042311;28;20037;-53
2022/09/07 13:15:45;;;;;;;29.77;27.13;;;32.00;1.00;;;;;;5032503;28;20041;-51
2022/09/07 13:18:34;;;;;;;27.17;24.35;;;32.00;1.00;;;;;;5033512;28;20032;-55
2022/09/07 13:21:08;;;;;;;23.52;21.38;;;32.20;1.00;;;;;;5038464;28;20029;-55